createdAt,value
2022-08-20T00:01:04.471Z,14.89
2022-08-20T00:03:10.603Z,14.91
2022-08-20T00:05:15.500Z,14.90
2022-08-20T00:07:19.358Z,14.90
2022-08-20T00:09:24.612Z,14.89
2022-08-20T00:11:34.952Z,14.89
2022-08-20T00:13:41.110Z,14.91
2022-08-20T00:15:45.065Z,14.92
2022-08-20T00:17:49.775Z,14.94
2022-08-20T00:19:53.611Z,14.96
2022-08-20T00:21:58.307Z,14.98
2022-08-20T00:24:02.175Z,14.98
2022-08-20T00:26:08.352Z,15.01
2022-08-20T00:28:13.264Z,15.02
2022-08-20T00:30:17.928Z,15.03
2022-08-20T00:32:21.529Z,15.04
2022-08-20T00:34:25.073Z,15.03
2022-08-20T00:36:32.095Z,15.03
2022-08-20T00:38:37.797Z,15.02
2022-08-20T00:40:46.198Z,15.02
2022-08-20T00:42:54.145Z,15.03
2022-08-20T00:44:57.780Z,15.02
2022-08-20T00:47:01.356Z,15.02
2022-08-20T00:49:08.479Z,15.03
2022-08-20T00:51:15.700Z,15.05
2022-08-20T00:53:22.065Z,15.04
2022-08-20T00:55:31.430Z,15.03
2022-08-20T00:57:55.496Z,15.04
2022-08-20T01:00:11.664Z,15.05
2022-08-20T01:02:17.800Z,15.05
2022-08-20T01:04:21.678Z,15.05
2022-08-20T01:06:25.458Z,15.07
2022-08-20T01:08:29.199Z,15.08
2022-08-20T01:10:36.392Z,15.06
2022-08-20T01:12:42.154Z,15.08
2022-08-20T01:14:46.817Z,15.06
2022-08-20T01:16:55.504Z,15.05
2022-08-20T01:19:01.523Z,15.05
2022-08-20T01:21:07.904Z,15.05
2022-08-20T01:23:27.300Z,15.05
2022-08-20T01:25:40.106Z,15.09
2022-08-20T01:27:44.521Z,15.10
2022-08-20T01:29:50.419Z,15.12
2022-08-20T01:31:53.938Z,15.13
2022-08-20T01:33:59.649Z,15.15
2022-08-20T01:36:03.145Z,15.18
2022-08-20T01:38:07.703Z,15.20
2022-08-20T01:40:17.438Z,15.23
2022-08-20T01:42:28.217Z,15.26
2022-08-20T01:44:33.676Z,15.29
2022-08-20T01:46:43.972Z,15.32
2022-08-20T01:48:47.483Z,15.33
2022-08-20T01:50:59.593Z,15.35
2022-08-20T01:53:12.663Z,15.37
2022-08-20T01:55:16.540Z,15.36
2022-08-20T01:57:26.911Z,15.37
2022-08-20T01:59:30.538Z,15.37
2022-08-20T02:01:46.512Z,15.40
2022-08-20T02:03:50.549Z,15.42
2022-08-20T02:05:54.341Z,15.44
2022-08-20T02:07:57.609Z,15.45
2022-08-20T02:10:01.321Z,15.43
2022-08-20T02:12:06.621Z,15.42
2022-08-20T02:14:12.294Z,15.42
2022-08-20T02:16:15.617Z,15.41
2022-08-20T02:18:20.456Z,15.43
2022-08-20T02:20:30.340Z,15.45
2022-08-20T02:22:41.027Z,15.46
2022-08-20T02:24:53.309Z,15.49
2022-08-20T02:26:56.755Z,15.50
2022-08-20T02:29:01.060Z,15.50
2022-08-20T02:31:08.741Z,15.51
2022-08-20T02:33:14.963Z,15.52
2022-08-20T02:35:19.610Z,15.51
2022-08-20T02:37:23.084Z,15.52
2022-08-20T02:39:27.003Z,15.52
2022-08-20T02:41:30.512Z,15.48
2022-08-20T02:43:34.087Z,15.48
2022-08-20T02:45:40.366Z,15.46
2022-08-20T02:47:45.887Z,15.43
2022-08-20T02:49:49.510Z,15.38
2022-08-20T02:51:52.865Z,15.34
2022-08-20T02:53:56.074Z,15.32
2022-08-20T02:55:59.900Z,15.29
2022-08-20T02:58:03.171Z,15.29
2022-08-20T03:00:08.033Z,15.27
2022-08-20T03:02:12.148Z,15.24
2022-08-20T03:04:16.844Z,15.19
2022-08-20T03:06:22.209Z,15.19
2022-08-20T03:08:26.319Z,15.16
2022-08-20T03:10:32.289Z,15.16
2022-08-20T03:12:36.044Z,15.14
2022-08-20T03:14:39.400Z,15.13
2022-08-20T03:16:43.198Z,15.11
2022-08-20T03:18:48.208Z,15.09
2022-08-20T03:20:56.896Z,15.06
2022-08-20T03:23:00.676Z,15.05
2022-08-20T03:25:04.019Z,15.05
2022-08-20T03:27:07.462Z,15.03
2022-08-20T03:29:12.020Z,15.04
2022-08-20T03:31:15.536Z,15.02
2022-08-20T03:33:20.321Z,15.01
2022-08-20T03:35:25.661Z,15.01
2022-08-20T03:37:33.266Z,15.02
2022-08-20T03:39:36.546Z,15.02
2022-08-20T03:41:39.846Z,15.02
2022-08-20T03:43:43.472Z,15.03
2022-08-20T03:45:48.015Z,15.04
2022-08-20T03:47:53.455Z,15.07
2022-08-20T03:50:00.233Z,15.09
2022-08-20T03:52:03.831Z,15.11
2022-08-20T03:54:08.566Z,15.11
2022-08-20T03:56:11.808Z,15.13
2022-08-20T03:58:17.104Z,15.13
2022-08-20T04:00:23.035Z,15.14
2022-08-20T04:02:28.274Z,15.14
2022-08-20T04:04:31.598Z,15.13
2022-08-20T04:06:35.016Z,15.13
2022-08-20T04:08:41.715Z,15.13
2022-08-20T04:10:46.886Z,15.14
2022-08-20T04:12:53.168Z,15.13
2022-08-20T04:14:56.623Z,15.11
2022-08-20T04:16:59.975Z,15.09
2022-08-20T04:19:04.055Z,15.08
2022-08-20T04:21:07.468Z,15.06
2022-08-20T04:23:12.077Z,15.03
2022-08-20T04:25:16.085Z,15.01
2022-08-20T04:27:21.384Z,15.00
2022-08-20T04:29:26.008Z,15.01
2022-08-20T04:31:35.762Z,14.99
2022-08-20T04:33:39.048Z,15.00
2022-08-20T04:35:42.294Z,14.99
2022-08-20T04:37:47.468Z,15.00
2022-08-20T04:40:05.241Z,14.98
2022-08-20T04:42:08.975Z,14.99
2022-08-20T04:44:13.898Z,14.99
2022-08-20T04:46:17.282Z,14.98
2022-08-20T04:48:23.969Z,14.95
2022-08-20T04:50:27.397Z,14.94
2022-08-20T04:52:33.025Z,14.93
2022-08-20T04:54:36.326Z,14.92
2022-08-20T04:56:39.839Z,14.92
2022-08-20T04:58:48.898Z,14.91
2022-08-20T05:00:56.596Z,14.89
2022-08-20T05:03:04.705Z,14.89
2022-08-20T05:05:09.072Z,14.88
2022-08-20T05:07:12.976Z,14.88
2022-08-20T05:09:16.300Z,14.89
2022-08-20T05:11:33.886Z,14.88
2022-08-20T05:13:39.702Z,14.89
2022-08-20T05:15:45.535Z,14.88
2022-08-20T05:17:55.873Z,14.89
2022-08-20T05:20:00.512Z,14.88
2022-08-20T05:22:03.983Z,14.89
2022-08-20T05:24:07.867Z,14.92
2022-08-20T05:26:12.208Z,14.92
2022-08-20T05:28:21.824Z,14.90
2022-08-20T05:30:25.252Z,14.92
2022-08-20T05:32:30.311Z,14.93
2022-08-20T05:34:35.216Z,14.94
2022-08-20T05:36:39.735Z,14.94
2022-08-20T05:38:43.104Z,14.91
2022-08-20T05:40:53.353Z,14.92
2022-08-20T05:42:56.634Z,14.95
2022-08-20T05:44:59.964Z,14.96
2022-08-20T05:47:04.493Z,14.97
2022-08-20T05:49:07.904Z,14.99
2022-08-20T05:51:15.250Z,14.99
2022-08-20T05:53:19.883Z,15.00
2022-08-20T05:55:24.094Z,15.01
2022-08-20T05:57:27.441Z,15.01
2022-08-20T05:59:30.895Z,15.04
2022-08-20T06:01:35.759Z,15.05
2022-08-20T06:03:52.875Z,15.05
2022-08-20T06:05:56.131Z,15.07
2022-08-20T06:08:07.293Z,15.09
2022-08-20T06:10:11.395Z,15.08
2022-08-20T06:12:14.643Z,15.08
2022-08-20T06:14:19.104Z,15.12
2022-08-20T06:16:22.429Z,15.15
2022-08-20T06:18:32.395Z,15.16
2022-08-20T06:20:35.755Z,15.19
2022-08-20T06:22:39.349Z,15.21
2022-08-20T06:24:44.422Z,15.22
2022-08-20T06:26:47.681Z,15.26
2022-08-20T06:28:50.924Z,15.30
2022-08-20T06:30:57.467Z,15.33
2022-08-20T06:33:00.836Z,15.35
2022-08-20T06:35:07.019Z,15.37
2022-08-20T06:37:18.115Z,15.39
2022-08-20T06:39:21.677Z,15.39
2022-08-20T06:41:35.955Z,15.40
2022-08-20T06:43:39.720Z,15.40
2022-08-20T06:45:43.665Z,15.44
2022-08-20T06:47:48.245Z,15.45
2022-08-20T06:49:51.809Z,15.45
2022-08-20T06:51:54.988Z,15.47
2022-08-20T06:53:58.649Z,15.48
2022-08-20T06:56:02.171Z,15.50
2022-08-20T06:58:26.552Z,15.51
2022-08-20T07:00:34.675Z,15.54
2022-08-20T07:02:37.951Z,15.54
2022-08-20T07:04:41.289Z,15.52
2022-08-20T07:06:44.951Z,15.52
2022-08-20T07:08:48.198Z,15.50
2022-08-20T07:10:52.891Z,15.53
2022-08-20T07:12:56.635Z,15.52
2022-08-20T07:15:01.407Z,15.53
2022-08-20T07:17:05.183Z,15.56
2022-08-20T07:19:15.603Z,15.61
2022-08-20T07:21:18.926Z,15.64
2022-08-20T07:23:22.296Z,15.66
2022-08-20T07:25:26.025Z,15.68
2022-08-20T07:27:29.288Z,15.73
2022-08-20T07:29:46.454Z,15.78
2022-08-20T07:32:08.233Z,15.86
2022-08-20T07:34:13.894Z,15.94
2022-08-20T07:36:17.828Z,15.99
2022-08-20T07:38:25.589Z,16.02
2022-08-20T07:40:30.600Z,16.07
2022-08-20T07:42:36.823Z,16.10
2022-08-20T07:44:40.042Z,16.12
2022-08-20T07:46:43.399Z,16.13
2022-08-20T07:48:50.225Z,16.12
2022-08-20T07:50:54.113Z,16.10
2022-08-20T07:53:00.656Z,16.07
2022-08-20T07:55:04.589Z,16.04
2022-08-20T07:57:07.868Z,15.96
2022-08-20T07:59:12.464Z,15.92
2022-08-20T08:01:15.803Z,15.92
2022-08-20T08:03:19.348Z,15.90
2022-08-20T08:05:48.076Z,15.99
2022-08-20T08:07:52.618Z,16.30
2022-08-20T08:09:56.958Z,16.72
2022-08-20T08:12:03.075Z,16.98
2022-08-20T08:14:08.579Z,17.08
2022-08-20T08:16:12.712Z,17.18
2022-08-20T08:18:21.874Z,17.32
2022-08-20T08:20:25.716Z,17.38
2022-08-20T08:22:33.117Z,17.42
2022-08-20T08:24:36.739Z,17.47
2022-08-20T08:26:40.377Z,17.50
2022-08-20T08:28:44.796Z,17.52
2022-08-20T08:30:50.242Z,17.50
2022-08-20T08:33:11.117Z,17.51
2022-08-20T08:35:14.605Z,17.54
2022-08-20T08:37:18.258Z,17.57
2022-08-20T08:39:23.261Z,17.60
2022-08-20T08:41:32.171Z,17.64
2022-08-20T08:43:35.827Z,17.69
2022-08-20T08:45:45.760Z,17.74
2022-08-20T08:47:50.038Z,17.84
2022-08-20T08:49:53.785Z,17.98
2022-08-20T08:52:00.691Z,18.05
2022-08-20T08:54:07.142Z,18.11
2022-08-20T08:56:14.648Z,18.18
2022-08-20T08:58:18.334Z,18.26
2022-08-20T09:00:24.054Z,18.31
2022-08-20T09:02:31.923Z,18.36
2022-08-20T09:04:38.161Z,18.41
2022-08-20T09:06:43.674Z,18.47
2022-08-20T09:08:51.035Z,18.52
2022-08-20T09:10:55.141Z,18.59
2022-08-20T09:13:01.519Z,18.67
2022-08-20T09:15:05.829Z,18.79
2022-08-20T09:17:09.993Z,18.90
2022-08-20T09:19:13.898Z,19.04
2022-08-20T09:21:18.480Z,19.11
2022-08-20T09:23:22.140Z,19.19
2022-08-20T09:25:26.246Z,19.23
2022-08-20T09:27:29.928Z,19.26
2022-08-20T09:29:35.237Z,19.36
2022-08-20T09:31:39.435Z,19.48
2022-08-20T09:33:43.095Z,19.59
2022-08-20T09:35:47.075Z,19.67
2022-08-20T09:37:52.417Z,19.74
2022-08-20T09:39:56.619Z,19.78
2022-08-20T09:42:09.314Z,19.84
2022-08-20T09:44:13.042Z,19.84
2022-08-20T09:46:18.135Z,19.88
2022-08-20T09:48:21.808Z,19.95
2022-08-20T09:50:37.266Z,20.05
2022-08-20T09:52:44.464Z,20.11
2022-08-20T09:54:48.158Z,20.21
2022-08-20T09:56:54.001Z,20.32
2022-08-20T09:59:02.289Z,20.45
2022-08-20T10:01:13.708Z,20.57
2022-08-20T10:03:19.753Z,20.65
2022-08-20T10:05:23.439Z,20.73
2022-08-20T10:07:27.007Z,20.74
2022-08-20T10:09:30.683Z,20.77
2022-08-20T10:11:34.493Z,20.73
2022-08-20T10:13:38.192Z,20.64
2022-08-20T10:15:41.853Z,20.63
2022-08-20T10:17:45.642Z,20.71
2022-08-20T10:19:50.821Z,20.80
2022-08-20T10:21:55.191Z,20.77
2022-08-20T10:23:59.150Z,20.84
2022-08-20T10:26:02.656Z,20.96
2022-08-20T10:28:07.182Z,21.01
2022-08-20T10:30:12.064Z,21.21
2022-08-20T10:32:17.551Z,21.38
2022-08-20T10:34:25.147Z,21.34
2022-08-20T10:36:30.347Z,21.17
2022-08-20T10:38:34.047Z,21.00
2022-08-20T10:40:37.584Z,20.83
2022-08-20T10:42:42.717Z,20.72
2022-08-20T10:44:47.140Z,20.54
2022-08-20T10:46:51.076Z,20.34
2022-08-20T10:49:00.540Z,20.28
2022-08-20T10:51:04.221Z,20.36
2022-08-20T10:53:09.264Z,20.35
2022-08-20T10:55:13.511Z,20.28
2022-08-20T10:57:22.951Z,20.27
2022-08-20T10:59:26.519Z,20.34
2022-08-20T11:01:33.865Z,20.52
2022-08-20T11:03:40.162Z,20.91
2022-08-20T11:05:43.596Z,21.22
2022-08-20T11:07:59.843Z,21.40
2022-08-20T11:10:08.362Z,21.64
2022-08-20T11:12:16.199Z,21.84
2022-08-20T11:14:19.795Z,21.97
2022-08-20T11:16:23.471Z,21.98
2022-08-20T11:18:27.274Z,21.84
2022-08-20T11:20:32.135Z,21.63
2022-08-20T11:22:35.788Z,21.61
2022-08-20T11:24:40.240Z,21.78
2022-08-20T11:26:48.053Z,22.04
2022-08-20T11:28:51.951Z,22.29
2022-08-20T11:30:55.482Z,22.52
2022-08-20T11:33:00.366Z,22.71
2022-08-20T11:35:14.068Z,22.74
2022-08-20T11:37:27.180Z,22.61
2022-08-20T11:39:30.484Z,22.53
2022-08-20T11:41:33.770Z,22.45
2022-08-20T11:43:38.803Z,22.27
2022-08-20T11:45:42.431Z,22.10
2022-08-20T11:47:46.336Z,22.00
2022-08-20T11:49:58.798Z,21.98
2022-08-20T11:52:02.446Z,21.93
2022-08-20T11:54:06.729Z,21.93
2022-08-20T11:56:13.353Z,22.00
2022-08-20T11:58:17.315Z,22.06
2022-08-20T12:00:32.067Z,22.09
2022-08-20T12:02:37.233Z,22.13
2022-08-20T12:04:40.913Z,22.22
2022-08-20T12:06:44.449Z,22.17
2022-08-20T12:08:48.107Z,22.04
2022-08-20T12:10:51.769Z,21.91
2022-08-20T12:12:55.480Z,21.89
2022-08-20T12:14:59.247Z,22.01
2022-08-20T12:17:11.191Z,22.11
2022-08-20T12:19:15.567Z,22.21
2022-08-20T12:21:19.253Z,22.24
2022-08-20T12:23:22.901Z,22.29
2022-08-20T12:25:27.122Z,22.35
2022-08-20T12:27:32.532Z,22.44
2022-08-20T12:29:35.989Z,22.48
2022-08-20T12:31:40.941Z,22.38
2022-08-20T12:33:46.010Z,22.26
2022-08-20T12:35:49.672Z,22.24
2022-08-20T12:37:53.113Z,22.31
2022-08-20T12:39:58.509Z,22.32
2022-08-20T12:42:03.183Z,22.29
2022-08-20T12:44:07.259Z,22.26
2022-08-20T12:46:16.781Z,22.23
2022-08-20T12:48:21.158Z,22.23
2022-08-20T12:50:31.296Z,22.14
2022-08-20T12:52:35.610Z,22.03
2022-08-20T12:54:39.211Z,21.97
2022-08-20T12:56:43.002Z,21.94
2022-08-20T12:58:46.909Z,21.93
2022-08-20T13:00:51.454Z,22.02
2022-08-20T13:02:56.873Z,22.08
2022-08-20T13:05:04.938Z,22.09
2022-08-20T13:07:13.031Z,22.08
2022-08-20T13:09:17.902Z,22.06
2022-08-20T13:11:21.626Z,22.04
2022-08-20T13:13:25.468Z,22.02
2022-08-20T13:15:29.037Z,22.04
2022-08-20T13:17:38.901Z,22.03
2022-08-20T13:19:45.125Z,22.02
2022-08-20T13:21:51.682Z,21.98
2022-08-20T13:24:00.101Z,21.95
2022-08-20T13:26:05.127Z,21.92
2022-08-20T13:28:08.850Z,21.95
2022-08-20T13:30:16.293Z,21.97
2022-08-20T13:32:20.116Z,21.94
2022-08-20T13:34:23.853Z,21.89
2022-08-20T13:36:27.581Z,21.78
2022-08-20T13:38:31.462Z,21.76
2022-08-20T13:40:36.661Z,21.78
2022-08-20T13:42:40.572Z,21.77
2022-08-20T13:44:45.132Z,21.74
2022-08-20T13:46:48.744Z,21.67
2022-08-20T13:48:52.224Z,21.59
2022-08-20T13:50:55.725Z,21.48
2022-08-20T13:52:59.307Z,21.35
2022-08-20T13:55:07.019Z,21.25
2022-08-20T13:57:14.096Z,21.21
2022-08-20T13:59:17.652Z,21.22
2022-08-20T14:01:21.300Z,21.23
2022-08-20T14:03:25.862Z,21.22
2022-08-20T14:05:31.102Z,21.25
2022-08-20T14:07:34.735Z,21.30
2022-08-20T14:09:39.975Z,21.31
2022-08-20T14:11:43.686Z,21.29
2022-08-20T14:13:48.671Z,21.26
2022-08-20T14:15:52.798Z,21.29
2022-08-20T14:17:58.393Z,21.34
2022-08-20T14:20:04.581Z,21.34
2022-08-20T14:22:08.202Z,21.30
2022-08-20T14:24:11.815Z,21.29
2022-08-20T14:26:15.371Z,21.33
2022-08-20T14:28:25.688Z,21.42
2022-08-20T14:30:31.996Z,21.48
2022-08-20T14:32:35.709Z,21.51
2022-08-20T14:34:40.166Z,21.56
2022-08-20T14:36:43.816Z,21.57
2022-08-20T14:38:47.325Z,21.55
2022-08-20T14:40:51.143Z,21.55
2022-08-20T14:42:55.112Z,21.54
2022-08-20T14:45:01.854Z,21.52
2022-08-20T14:47:15.492Z,21.51
2022-08-20T14:49:19.614Z,21.46
2022-08-20T14:51:23.212Z,21.39
2022-08-20T14:53:27.103Z,21.33
2022-08-20T14:55:33.036Z,21.27
2022-08-20T14:57:36.648Z,21.24
2022-08-20T14:59:40.537Z,21.20
2022-08-20T15:01:44.161Z,21.17
2022-08-20T15:03:49.259Z,21.22
2022-08-20T15:05:54.930Z,21.30
2022-08-20T15:07:59.634Z,21.36
2022-08-20T15:10:06.559Z,21.39
2022-08-20T15:12:10.623Z,21.38
2022-08-20T15:14:15.048Z,21.38
2022-08-20T15:16:22.014Z,21.38
2022-08-20T15:18:27.160Z,21.33
2022-08-20T15:20:34.530Z,21.28
2022-08-20T15:22:38.097Z,21.23
2022-08-20T15:24:41.823Z,21.18
2022-08-20T15:26:46.591Z,21.15
2022-08-20T15:28:50.233Z,21.13
2022-08-20T15:30:54.035Z,21.05
2022-08-20T15:32:57.942Z,21.00
2022-08-20T15:35:02.155Z,20.99
2022-08-20T15:37:13.069Z,20.97
2022-08-20T15:39:16.694Z,21.00
2022-08-20T15:41:20.213Z,20.99
2022-08-20T15:43:24.073Z,20.99
2022-08-20T15:45:27.922Z,20.96
2022-08-20T15:47:35.257Z,20.90
2022-08-20T15:49:38.831Z,20.79
2022-08-20T15:51:46.555Z,20.69
2022-08-20T15:53:58.400Z,20.58
2022-08-20T15:56:11.351Z,20.54
2022-08-20T15:58:22.775Z,20.50
2022-08-20T16:00:30.551Z,20.51
2022-08-20T16:02:50.648Z,20.50
2022-08-20T16:05:08.746Z,20.49
2022-08-20T16:07:15.937Z,20.50
2022-08-20T16:09:39.437Z,20.44
2022-08-20T16:11:48.914Z,20.35
2022-08-20T16:13:57.435Z,20.30
2022-08-20T16:16:03.478Z,20.31
2022-08-20T16:18:10.273Z,20.35
2022-08-20T16:20:22.390Z,20.41
2022-08-20T16:22:28.679Z,20.42
2022-08-20T16:24:34.424Z,20.43
2022-08-20T16:27:01.651Z,20.41
2022-08-20T16:29:11.653Z,20.39
2022-08-20T16:31:20.733Z,20.38
2022-08-20T16:33:31.583Z,20.39
2022-08-20T16:35:39.018Z,20.39
2022-08-20T16:37:48.296Z,20.35
2022-08-20T16:40:00.276Z,20.31
2022-08-20T16:42:05.775Z,20.31
2022-08-20T16:44:21.189Z,20.33
2022-08-20T16:46:29.985Z,20.30
2022-08-20T16:48:43.613Z,20.26
2022-08-20T16:50:56.377Z,20.20
2022-08-20T16:53:00.394Z,20.15
2022-08-20T16:55:05.961Z,20.14
2022-08-20T16:57:12.818Z,20.14
2022-08-20T16:59:27.081Z,20.15
2022-08-20T17:01:31.341Z,20.14
2022-08-20T17:03:40.573Z,20.12
2022-08-20T17:05:47.987Z,20.09
2022-08-20T17:07:57.311Z,20.07
2022-08-20T17:10:17.942Z,20.02
2022-08-20T17:12:23.701Z,19.94
2022-08-20T17:14:27.298Z,19.81
2022-08-20T17:16:34.487Z,19.65
2022-08-20T17:18:40.859Z,19.48
2022-08-20T17:20:47.000Z,19.29
2022-08-20T17:22:53.750Z,19.10
2022-08-20T17:24:58.487Z,18.86
2022-08-20T17:27:08.123Z,18.68
2022-08-20T17:29:17.610Z,18.41
2022-08-20T17:31:38.932Z,18.24
2022-08-20T17:33:42.751Z,18.10
2022-08-20T17:35:55.606Z,18.02
2022-08-20T17:38:01.227Z,17.92
2022-08-20T17:40:12.588Z,17.86
2022-08-20T17:42:22.263Z,17.80
2022-08-20T17:44:34.208Z,17.71
2022-08-20T17:46:44.328Z,17.63
2022-08-20T17:48:50.267Z,17.50
2022-08-20T17:50:55.295Z,17.44
2022-08-20T17:53:05.982Z,17.37
2022-08-20T17:55:12.211Z,17.31
2022-08-20T17:57:19.560Z,17.28
2022-08-20T17:59:36.442Z,17.21
2022-08-20T18:01:52.659Z,17.19
2022-08-20T18:03:56.305Z,17.14
2022-08-20T18:06:04.406Z,17.12
2022-08-20T18:08:17.777Z,17.10
2022-08-20T18:10:25.022Z,17.10
2022-08-20T18:12:36.411Z,17.07
2022-08-20T18:14:51.732Z,17.05
2022-08-20T18:17:15.767Z,17.02
2022-08-20T18:19:36.372Z,17.04
2022-08-20T18:22:04.120Z,17.06
2022-08-20T18:24:13.585Z,17.08
2022-08-20T18:26:22.674Z,17.05
2022-08-20T18:28:38.368Z,16.96
2022-08-20T18:30:51.175Z,16.88
2022-08-20T18:33:06.274Z,16.84
2022-08-20T18:35:18.729Z,16.84
2022-08-20T18:37:26.539Z,16.84
2022-08-20T18:39:32.574Z,16.85
2022-08-20T18:41:38.719Z,16.83
2022-08-20T18:43:44.718Z,16.81
2022-08-20T18:45:48.376Z,16.80
2022-08-20T18:47:52.102Z,16.78
2022-08-20T18:50:05.524Z,16.74
2022-08-20T18:52:14.912Z,16.70
2022-08-20T18:54:26.896Z,16.65
2022-08-20T18:56:40.674Z,16.60
2022-08-20T18:58:59.154Z,16.53
2022-08-20T19:01:09.200Z,16.51
2022-08-20T19:03:24.940Z,16.49
2022-08-20T19:05:33.013Z,16.47
2022-08-20T19:07:45.827Z,16.42
2022-08-20T19:10:24.098Z,16.36
2022-08-20T19:13:16.189Z,16.29
2022-08-20T19:15:23.635Z,16.29
2022-08-20T19:17:39.101Z,16.32
2022-08-20T19:19:42.818Z,16.30
2022-08-20T19:21:46.385Z,16.28
2022-08-20T19:23:53.622Z,16.27
2022-08-20T19:26:00.628Z,16.28
2022-08-20T19:28:15.087Z,16.29
2022-08-20T19:30:34.671Z,16.26
2022-08-20T19:32:42.709Z,16.21
2022-08-20T19:34:54.493Z,16.21
2022-08-20T19:37:09.105Z,16.18
2022-08-20T19:39:25.576Z,16.13
2022-08-20T19:41:31.784Z,16.12
2022-08-20T19:43:44.428Z,16.11
2022-08-20T19:45:54.566Z,16.10
2022-08-20T19:48:10.611Z,16.08
2022-08-20T19:50:23.234Z,16.06
2022-08-20T19:52:40.134Z,16.04
2022-08-20T19:54:49.772Z,16.04
2022-08-20T19:56:57.902Z,16.04
2022-08-20T19:59:04.727Z,16.03
2022-08-20T20:01:17.290Z,16.07
2022-08-20T20:03:24.059Z,16.10
2022-08-20T20:05:27.801Z,16.12
2022-08-20T20:07:39.801Z,16.13
2022-08-20T20:09:43.729Z,16.16
2022-08-20T20:11:53.907Z,16.16
2022-08-20T20:14:03.338Z,16.16
2022-08-20T20:16:07.529Z,16.15
2022-08-20T20:18:13.572Z,16.17
2022-08-20T20:20:24.850Z,16.17
2022-08-20T20:22:31.572Z,16.17
2022-08-20T20:24:44.497Z,16.16
2022-08-20T20:26:50.083Z,16.15
2022-08-20T20:29:02.187Z,16.14
2022-08-20T20:31:10.951Z,16.13
2022-08-20T20:33:20.696Z,16.12
2022-08-20T20:35:30.687Z,16.13
2022-08-20T20:37:50.232Z,16.12
2022-08-20T20:40:02.632Z,16.08
2022-08-20T20:42:08.588Z,16.04
2022-08-20T20:44:22.358Z,16.02
2022-08-20T20:46:28.931Z,16.02
2022-08-20T20:48:43.740Z,16.02
2022-08-20T20:50:49.178Z,16.03
2022-08-20T20:52:56.001Z,16.02
2022-08-20T20:55:11.097Z,16.03
2022-08-20T20:57:35.335Z,16.03
2022-08-20T20:59:43.135Z,16.04
2022-08-20T21:01:48.743Z,16.03
2022-08-20T21:03:55.010Z,16.02
2022-08-20T21:05:58.702Z,15.97
2022-08-20T21:08:05.905Z,15.96
2022-08-20T21:10:09.909Z,15.95
2022-08-20T21:12:15.316Z,15.95
2022-08-20T21:14:19.401Z,15.97
2022-08-20T21:16:23.089Z,15.97
2022-08-20T21:18:26.941Z,15.98
2022-08-20T21:20:32.648Z,15.96
2022-08-20T21:22:36.811Z,15.96
2022-08-20T21:24:40.503Z,15.95
2022-08-20T21:26:44.301Z,15.95
2022-08-20T21:28:48.219Z,15.95
2022-08-20T21:30:58.287Z,15.95
2022-08-20T21:33:02.447Z,15.95
2022-08-20T21:35:07.162Z,15.96
2022-08-20T21:37:12.545Z,15.96
2022-08-20T21:39:16.290Z,15.95
2022-08-20T21:41:29.481Z,15.95
2022-08-20T21:43:33.783Z,15.96
2022-08-20T21:45:39.270Z,15.94
2022-08-20T21:47:42.955Z,15.93
2022-08-20T21:49:50.494Z,15.92
2022-08-20T21:51:54.676Z,15.89
2022-08-20T21:53:59.725Z,15.85
2022-08-20T21:56:03.855Z,15.85
2022-08-20T21:58:07.824Z,15.82
2022-08-20T22:00:19.046Z,15.75
2022-08-20T22:02:25.144Z,15.73
2022-08-20T22:04:33.490Z,15.73
2022-08-20T22:06:39.393Z,15.72
2022-08-20T22:08:43.143Z,15.72
2022-08-20T22:10:48.537Z,15.68
2022-08-20T22:12:52.944Z,15.64
2022-08-20T22:14:56.619Z,15.61
2022-08-20T22:17:00.568Z,15.59
2022-08-20T22:19:04.599Z,15.59
2022-08-20T22:21:11.551Z,15.55
2022-08-20T22:23:16.075Z,15.52
2022-08-20T22:25:19.704Z,15.50
2022-08-20T22:27:24.945Z,15.44
2022-08-20T22:29:28.679Z,15.39
2022-08-20T22:31:34.819Z,15.34
2022-08-20T22:33:38.555Z,15.30
2022-08-20T22:35:50.040Z,15.25
2022-08-20T22:37:54.242Z,15.20
2022-08-20T22:39:58.238Z,15.20
2022-08-20T22:42:01.944Z,15.17
2022-08-20T22:44:07.771Z,15.20
2022-08-20T22:46:12.172Z,15.21
2022-08-20T22:48:18.580Z,15.21
2022-08-20T22:50:25.303Z,15.22
2022-08-20T22:52:28.914Z,15.27
2022-08-20T22:54:32.875Z,15.26
2022-08-20T22:56:36.638Z,15.28
2022-08-20T22:58:40.889Z,15.28
2022-08-20T23:00:51.853Z,15.28
2022-08-20T23:03:00.209Z,15.25
2022-08-20T23:05:04.046Z,15.23
2022-08-20T23:07:11.512Z,15.21
2022-08-20T23:09:21.063Z,15.20
2022-08-20T23:11:24.798Z,15.19
2022-08-20T23:13:29.882Z,15.15
2022-08-20T23:15:36.452Z,15.13
2022-08-20T23:17:47.099Z,15.11
2022-08-20T23:19:52.005Z,15.10
2022-08-20T23:21:55.641Z,15.09
2022-08-20T23:23:59.194Z,15.03
2022-08-20T23:26:03.204Z,15.01
2022-08-20T23:28:06.660Z,15.01
2022-08-20T23:30:11.494Z,15.02
2022-08-20T23:32:15.297Z,15.01
2022-08-20T23:34:20.533Z,14.99
2022-08-20T23:36:26.221Z,15.01
2022-08-20T23:38:29.890Z,14.98
2022-08-20T23:40:34.027Z,14.97
2022-08-20T23:42:37.786Z,14.94
2022-08-20T23:44:42.040Z,14.90
2022-08-20T23:46:46.103Z,14.84
2022-08-20T23:48:49.493Z,14.80
2022-08-20T23:50:54.265Z,14.78
2022-08-20T23:52:58.828Z,14.77
2022-08-20T23:55:02.378Z,14.77
2022-08-20T23:57:08.178Z,14.77
2022-08-20T23:59:11.781Z,14.78
